sensor_id;sensor_type;location;lat;lon;timestamp;temperature;humidity
49124;DHT22;48506;48.202;16.274;2023-12-22T00:00:31;8.10;99.90
49124;DHT22;48506;48.202;16.274;2023-12-22T00:02:57;8.20;99.90
49124;DHT22;48506;48.202;16.274;2023-12-22T00:05:22;8.10;99.90
49124;DHT22;48506;48.202;16.274;2023-12-22T00:07:48;8.10;99.90
49124;DHT22;48506;48.202;16.274;2023-12-22T00:10:14;8.20;99.90
49124;DHT22;48506;48.202;16.274;2023-12-22T00:12:40;8.10;99.90
49124;DHT22;48506;48.202;16.274;2023-12-22T00:15:06;8.10;99.90
49124;DHT22;48506;48.202;16.274;2023-12-22T00:17:32;8.10;99.90
49124;DHT22;48506;48.202;16.274;2023-12-22T00:19:58;8.10;99.90
49124;DHT22;48506;48.202;16.274;2023-12-22T00:22:28;8.00;98.90
49124;DHT22;48506;48.202;16.274;2023-12-22T00:24:56;7.90;97.90
49124;DHT22;48506;48.202;16.274;2023-12-22T00:27:21;7.90;98.40
49124;DHT22;48506;48.202;16.274;2023-12-22T00:29:47;7.80;98.20
49124;DHT22;48506;48.202;16.274;2023-12-22T00:32:13;7.80;97.90
49124;DHT22;48506;48.202;16.274;2023-12-22T00:34:39;7.80;98.40
49124;DHT22;48506;48.202;16.274;2023-12-22T00:37:05;7.70;98.50
49124;DHT22;48506;48.202;16.274;2023-12-22T00:39:31;7.70;98.10
49124;DHT22;48506;48.202;16.274;2023-12-22T00:41:57;7.70;98.30
49124;DHT22;48506;48.202;16.274;2023-12-22T00:44:23;7.70;98.00
49124;DHT22;48506;48.202;16.274;2023-12-22T00:46:51;7.70;98.20
49124;DHT22;48506;48.202;16.274;2023-12-22T00:49:17;7.70;98.20
49124;DHT22;48506;48.202;16.274;2023-12-22T00:51:43;7.70;97.90
49124;DHT22;48506;48.202;16.274;2023-12-22T00:54:09;7.70;98.00
49124;DHT22;48506;48.202;16.274;2023-12-22T00:56:35;7.70;98.10
49124;DHT22;48506;48.202;16.274;2023-12-22T00:59:01;7.70;98.10
49124;DHT22;48506;48.202;16.274;2023-12-22T01:01:26;7.70;97.90
49124;DHT22;48506;48.202;16.274;2023-12-22T01:03:52;7.60;97.40
49124;DHT22;48506;48.202;16.274;2023-12-22T01:06:18;7.60;97.80
49124;DHT22;48506;48.202;16.274;2023-12-22T01:08:44;7.60;97.60
49124;DHT22;48506;48.202;16.274;2023-12-22T01:11:10;7.60;97.70
49124;DHT22;48506;48.202;16.274;2023-12-22T01:13:36;7.60;97.70
49124;DHT22;48506;48.202;16.274;2023-12-22T01:16:02;7.60;97.70
49124;DHT22;48506;48.202;16.274;2023-12-22T01:18:28;7.60;97.80
49124;DHT22;48506;48.202;16.274;2023-12-22T01:20:55;7.60;97.50
49124;DHT22;48506;48.202;16.274;2023-12-22T01:23:21;7.60;97.60
49124;DHT22;48506;48.202;16.274;2023-12-22T01:25:47;7.60;97.70
49124;DHT22;48506;48.202;16.274;2023-12-22T01:28:12;7.60;97.80
49124;DHT22;48506;48.202;16.274;2023-12-22T01:30:38;7.60;97.40
49124;DHT22;48506;48.202;16.274;2023-12-22T01:33:04;7.50;96.90
49124;DHT22;48506;48.202;16.274;2023-12-22T01:35:30;7.60;97.10
49124;DHT22;48506;48.202;16.274;2023-12-22T01:37:56;7.60;97.20
49124;DHT22;48506;48.202;16.274;2023-12-22T01:40:22;7.60;97.40
49124;DHT22;48506;48.202;16.274;2023-12-22T01:42:48;7.60;96.80
49124;DHT22;48506;48.202;16.274;2023-12-22T01:45:14;7.60;96.50
49124;DHT22;48506;48.202;16.274;2023-12-22T01:47:40;7.70;96.80
49124;DHT22;48506;48.202;16.274;2023-12-22T01:50:07;7.60;96.50
49124;DHT22;48506;48.202;16.274;2023-12-22T01:52:37;7.70;96.20
49124;DHT22;48506;48.202;16.274;2023-12-22T01:55:04;7.70;96.20
49124;DHT22;48506;48.202;16.274;2023-12-22T01:57:31;7.70;96.10
49124;DHT22;48506;48.202;16.274;2023-12-22T01:59:57;7.70;96.20
49124;DHT22;48506;48.202;16.274;2023-12-22T02:02:23;7.70;96.00
49124;DHT22;48506;48.202;16.274;2023-12-22T02:04:49;7.70;96.50
49124;DHT22;48506;48.202;16.274;2023-12-22T02:07:15;7.70;96.10
49124;DHT22;48506;48.202;16.274;2023-12-22T02:09:41;7.70;96.40
49124;DHT22;48506;48.202;16.274;2023-12-22T02:12:07;7.70;96.50
49124;DHT22;48506;48.202;16.274;2023-12-22T02:14:33;7.70;96.40
49124;DHT22;48506;48.202;16.274;2023-12-22T02:17:14;7.70;96.50
49124;DHT22;48506;48.202;16.274;2023-12-22T02:19:42;7.70;96.70
49124;DHT22;48506;48.202;16.274;2023-12-22T02:22:10;7.70;96.90
49124;DHT22;48506;48.202;16.274;2023-12-22T02:24:36;7.70;96.90
49124;DHT22;48506;48.202;16.274;2023-12-22T02:27:17;7.70;96.90
49124;DHT22;48506;48.202;16.274;2023-12-22T02:29:51;7.70;96.70
49124;DHT22;48506;48.202;16.274;2023-12-22T02:32:37;7.70;96.60
49124;DHT22;48506;48.202;16.274;2023-12-22T02:35:06;7.70;96.40
49124;DHT22;48506;48.202;16.274;2023-12-22T02:37:35;7.60;96.20
49124;DHT22;48506;48.202;16.274;2023-12-22T02:40:02;7.60;95.50
49124;DHT22;48506;48.202;16.274;2023-12-22T02:42:29;7.50;95.40
49124;DHT22;48506;48.202;16.274;2023-12-22T02:44:57;7.50;95.10
49124;DHT22;48506;48.202;16.274;2023-12-22T02:47:24;7.50;93.60
49124;DHT22;48506;48.202;16.274;2023-12-22T02:49:50;7.40;94.20
49124;DHT22;48506;48.202;16.274;2023-12-22T02:52:16;7.40;94.10
49124;DHT22;48506;48.202;16.274;2023-12-22T02:54:42;7.40;94.10
49124;DHT22;48506;48.202;16.274;2023-12-22T02:57:08;7.40;94.60
49124;DHT22;48506;48.202;16.274;2023-12-22T02:59:34;7.40;94.50
49124;DHT22;48506;48.202;16.274;2023-12-22T03:02:00;7.40;94.40
49124;DHT22;48506;48.202;16.274;2023-12-22T03:04:26;7.40;94.40
49124;DHT22;48506;48.202;16.274;2023-12-22T03:06:52;7.40;94.70
49124;DHT22;48506;48.202;16.274;2023-12-22T03:09:18;7.30;95.10
49124;DHT22;48506;48.202;16.274;2023-12-22T03:11:44;7.40;95.40
49124;DHT22;48506;48.202;16.274;2023-12-22T03:14:10;7.30;95.30
49124;DHT22;48506;48.202;16.274;2023-12-22T03:16:36;7.40;95.50
49124;DHT22;48506;48.202;16.274;2023-12-22T03:19:02;7.30;95.50
49124;DHT22;48506;48.202;16.274;2023-12-22T03:21:28;7.30;95.70
49124;DHT22;48506;48.202;16.274;2023-12-22T03:23:54;7.20;96.20
49124;DHT22;48506;48.202;16.274;2023-12-22T03:26:20;7.10;96.30
49124;DHT22;48506;48.202;16.274;2023-12-22T03:28:46;7.10;96.40
49124;DHT22;48506;48.202;16.274;2023-12-22T03:31:11;7.00;96.50
49124;DHT22;48506;48.202;16.274;2023-12-22T03:33:37;7.00;96.60
49124;DHT22;48506;48.202;16.274;2023-12-22T03:36:03;7.00;96.60
49124;DHT22;48506;48.202;16.274;2023-12-22T03:38:29;6.90;96.80
49124;DHT22;48506;48.202;16.274;2023-12-22T03:40:55;6.90;96.80
49124;DHT22;48506;48.202;16.274;2023-12-22T03:43:21;6.90;96.90
49124;DHT22;48506;48.202;16.274;2023-12-22T03:45:47;7.00;96.80
49124;DHT22;48506;48.202;16.274;2023-12-22T03:48:12;7.00;96.90
49124;DHT22;48506;48.202;16.274;2023-12-22T03:50:38;7.00;96.80
49124;DHT22;48506;48.202;16.274;2023-12-22T03:53:04;7.00;96.70
49124;DHT22;48506;48.202;16.274;2023-12-22T03:55:30;7.00;96.70
49124;DHT22;48506;48.202;16.274;2023-12-22T03:57:56;7.00;96.80
49124;DHT22;48506;48.202;16.274;2023-12-22T04:00:22;7.00;96.90
49124;DHT22;48506;48.202;16.274;2023-12-22T04:02:48;7.00;96.70
49124;DHT22;48506;48.202;16.274;2023-12-22T04:05:13;7.00;96.70
49124;DHT22;48506;48.202;16.274;2023-12-22T04:07:39;7.00;96.70
49124;DHT22;48506;48.202;16.274;2023-12-22T04:10:06;7.00;96.60
49124;DHT22;48506;48.202;16.274;2023-12-22T04:12:32;7.00;96.40
49124;DHT22;48506;48.202;16.274;2023-12-22T04:14:58;7.00;96.50
49124;DHT22;48506;48.202;16.274;2023-12-22T04:17:23;6.90;96.30
49124;DHT22;48506;48.202;16.274;2023-12-22T04:19:49;6.90;96.50
49124;DHT22;48506;48.202;16.274;2023-12-22T04:22:15;6.90;96.50
49124;DHT22;48506;48.202;16.274;2023-12-22T04:24:41;6.90;96.50
49124;DHT22;48506;48.202;16.274;2023-12-22T04:27:07;6.90;96.50
49124;DHT22;48506;48.202;16.274;2023-12-22T04:29:33;6.80;96.40
49124;DHT22;48506;48.202;16.274;2023-12-22T04:31:58;6.90;96.50
49124;DHT22;48506;48.202;16.274;2023-12-22T04:34:24;6.90;96.30
49124;DHT22;48506;48.202;16.274;2023-12-22T04:36:50;6.90;96.10
49124;DHT22;48506;48.202;16.274;2023-12-22T04:39:16;7.00;96.10
49124;DHT22;48506;48.202;16.274;2023-12-22T04:41:42;7.00;96.10
49124;DHT22;48506;48.202;16.274;2023-12-22T04:44:07;7.00;96.20
49124;DHT22;48506;48.202;16.274;2023-12-22T04:46:33;7.00;96.20
49124;DHT22;48506;48.202;16.274;2023-12-22T04:48:59;7.10;95.70
49124;DHT22;48506;48.202;16.274;2023-12-22T04:51:25;7.10;95.50
49124;DHT22;48506;48.202;16.274;2023-12-22T04:53:51;7.10;95.10
49124;DHT22;48506;48.202;16.274;2023-12-22T04:56:17;7.10;95.30
49124;DHT22;48506;48.202;16.274;2023-12-22T04:58:43;7.10;95.50
49124;DHT22;48506;48.202;16.274;2023-12-22T05:01:09;7.10;95.30
49124;DHT22;48506;48.202;16.274;2023-12-22T05:03:34;7.10;95.50
49124;DHT22;48506;48.202;16.274;2023-12-22T05:06:00;7.20;95.10
49124;DHT22;48506;48.202;16.274;2023-12-22T05:08:26;7.20;95.00
49124;DHT22;48506;48.202;16.274;2023-12-22T05:10:52;7.20;94.90
49124;DHT22;48506;48.202;16.274;2023-12-22T05:13:19;7.20;94.60
49124;DHT22;48506;48.202;16.274;2023-12-22T05:15:45;7.20;94.70
49124;DHT22;48506;48.202;16.274;2023-12-22T05:18:11;7.20;94.70
49124;DHT22;48506;48.202;16.274;2023-12-22T05:20:37;7.20;94.40
49124;DHT22;48506;48.202;16.274;2023-12-22T05:23:03;7.20;94.10
49124;DHT22;48506;48.202;16.274;2023-12-22T05:25:28;7.20;94.40
49124;DHT22;48506;48.202;16.274;2023-12-22T05:27:54;7.20;94.40
49124;DHT22;48506;48.202;16.274;2023-12-22T05:30:20;7.20;93.90
49124;DHT22;48506;48.202;16.274;2023-12-22T05:32:46;7.20;94.10
49124;DHT22;48506;48.202;16.274;2023-12-22T05:35:12;7.30;94.00
49124;DHT22;48506;48.202;16.274;2023-12-22T05:37:38;7.20;93.70
49124;DHT22;48506;48.202;16.274;2023-12-22T05:40:05;7.20;93.70
49124;DHT22;48506;48.202;16.274;2023-12-22T05:42:32;7.20;93.70
49124;DHT22;48506;48.202;16.274;2023-12-22T05:44:58;7.20;93.70
49124;DHT22;48506;48.202;16.274;2023-12-22T05:47:24;7.20;93.40
49124;DHT22;48506;48.202;16.274;2023-12-22T05:49:50;7.10;93.60
49124;DHT22;48506;48.202;16.274;2023-12-22T05:52:16;7.10;93.50
49124;DHT22;48506;48.202;16.274;2023-12-22T05:54:42;7.10;93.70
49124;DHT22;48506;48.202;16.274;2023-12-22T05:57:07;7.00;93.80
49124;DHT22;48506;48.202;16.274;2023-12-22T05:59:34;7.00;94.10
49124;DHT22;48506;48.202;16.274;2023-12-22T06:02:00;7.00;94.00
49124;DHT22;48506;48.202;16.274;2023-12-22T06:04:26;6.90;94.30
49124;DHT22;48506;48.202;16.274;2023-12-22T06:06:52;6.90;94.30
49124;DHT22;48506;48.202;16.274;2023-12-22T06:09:19;6.90;94.40
49124;DHT22;48506;48.202;16.274;2023-12-22T06:11:48;6.90;94.40
49124;DHT22;48506;48.202;16.274;2023-12-22T06:14:14;6.90;94.50
49124;DHT22;48506;48.202;16.274;2023-12-22T06:16:40;6.80;94.60
49124;DHT22;48506;48.202;16.274;2023-12-22T06:19:06;6.80;94.80
49124;DHT22;48506;48.202;16.274;2023-12-22T06:21:32;6.70;95.10
49124;DHT22;48506;48.202;16.274;2023-12-22T06:23:58;6.60;95.20
49124;DHT22;48506;48.202;16.274;2023-12-22T06:26:24;6.60;95.20
49124;DHT22;48506;48.202;16.274;2023-12-22T06:28:49;6.60;95.30
49124;DHT22;48506;48.202;16.274;2023-12-22T06:31:20;6.60;95.50
49124;DHT22;48506;48.202;16.274;2023-12-22T06:33:47;6.50;95.60
49124;DHT22;48506;48.202;16.274;2023-12-22T06:36:22;6.50;95.80
49124;DHT22;48506;48.202;16.274;2023-12-22T06:38:52;6.40;96.00
49124;DHT22;48506;48.202;16.274;2023-12-22T06:41:30;6.40;96.10
49124;DHT22;48506;48.202;16.274;2023-12-22T06:43:57;6.40;96.30
49124;DHT22;48506;48.202;16.274;2023-12-22T06:46:26;6.30;96.40
49124;DHT22;48506;48.202;16.274;2023-12-22T06:48:53;6.40;96.40
49124;DHT22;48506;48.202;16.274;2023-12-22T06:51:27;6.30;96.60
49124;DHT22;48506;48.202;16.274;2023-12-22T06:53:54;6.30;96.60
49124;DHT22;48506;48.202;16.274;2023-12-22T06:56:27;6.30;96.70
49124;DHT22;48506;48.202;16.274;2023-12-22T06:58:55;6.30;96.70
49124;DHT22;48506;48.202;16.274;2023-12-22T07:01:33;6.30;96.70
49124;DHT22;48506;48.202;16.274;2023-12-22T07:04:01;6.30;96.50
49124;DHT22;48506;48.202;16.274;2023-12-22T07:06:30;6.30;96.50
49124;DHT22;48506;48.202;16.274;2023-12-22T07:08:57;6.40;96.50
49124;DHT22;48506;48.202;16.274;2023-12-22T07:11:23;6.30;96.60
49124;DHT22;48506;48.202;16.274;2023-12-22T07:13:49;6.40;96.60
49124;DHT22;48506;48.202;16.274;2023-12-22T07:16:15;6.40;96.50
49124;DHT22;48506;48.202;16.274;2023-12-22T07:18:41;6.40;96.50
49124;DHT22;48506;48.202;16.274;2023-12-22T07:21:07;6.40;96.60
49124;DHT22;48506;48.202;16.274;2023-12-22T07:23:33;6.40;96.50
49124;DHT22;48506;48.202;16.274;2023-12-22T07:25:59;6.50;96.50
49124;DHT22;48506;48.202;16.274;2023-12-22T07:28:25;6.50;96.10
49124;DHT22;48506;48.202;16.274;2023-12-22T07:30:53;6.50;96.20
49124;DHT22;48506;48.202;16.274;2023-12-22T07:33:20;6.50;96.20
49124;DHT22;48506;48.202;16.274;2023-12-22T07:35:46;6.50;96.10
49124;DHT22;48506;48.202;16.274;2023-12-22T07:38:12;6.50;96.00
49124;DHT22;48506;48.202;16.274;2023-12-22T07:40:38;6.50;96.00
49124;DHT22;48506;48.202;16.274;2023-12-22T07:43:04;6.50;95.70
49124;DHT22;48506;48.202;16.274;2023-12-22T07:45:30;6.50;95.70
49124;DHT22;48506;48.202;16.274;2023-12-22T07:47:56;6.50;96.10
49124;DHT22;48506;48.202;16.274;2023-12-22T07:50:22;6.50;96.10
49124;DHT22;48506;48.202;16.274;2023-12-22T07:52:48;6.60;95.80
49124;DHT22;48506;48.202;16.274;2023-12-22T07:55:15;6.60;95.90
49124;DHT22;48506;48.202;16.274;2023-12-22T07:57:41;6.70;95.80
49124;DHT22;48506;48.202;16.274;2023-12-22T08:00:07;6.70;95.60
49124;DHT22;48506;48.202;16.274;2023-12-22T08:02:36;6.80;95.60
49124;DHT22;48506;48.202;16.274;2023-12-22T08:05:03;6.80;95.60
49124;DHT22;48506;48.202;16.274;2023-12-22T08:07:29;6.80;95.40
49124;DHT22;48506;48.202;16.274;2023-12-22T08:09:56;6.80;95.50
49124;DHT22;48506;48.202;16.274;2023-12-22T08:12:22;6.80;95.20
49124;DHT22;48506;48.202;16.274;2023-12-22T08:14:48;6.80;95.20
49124;DHT22;48506;48.202;16.274;2023-12-22T08:17:14;6.90;95.20
49124;DHT22;48506;48.202;16.274;2023-12-22T08:19:40;6.80;95.10
49124;DHT22;48506;48.202;16.274;2023-12-22T08:22:10;6.80;95.20
49124;DHT22;48506;48.202;16.274;2023-12-22T08:24:36;6.80;95.00
49124;DHT22;48506;48.202;16.274;2023-12-22T08:27:02;6.80;95.00
49124;DHT22;48506;48.202;16.274;2023-12-22T08:29:28;6.80;95.20
49124;DHT22;48506;48.202;16.274;2023-12-22T08:31:54;6.80;95.20
49124;DHT22;48506;48.202;16.274;2023-12-22T08:34:20;6.80;95.30
49124;DHT22;48506;48.202;16.274;2023-12-22T08:36:46;6.80;95.30
49124;DHT22;48506;48.202;16.274;2023-12-22T08:39:12;6.90;95.20
49124;DHT22;48506;48.202;16.274;2023-12-22T08:41:38;7.00;95.40
49124;DHT22;48506;48.202;16.274;2023-12-22T08:44:05;7.10;95.00
49124;DHT22;48506;48.202;16.274;2023-12-22T08:46:31;7.20;94.90
49124;DHT22;48506;48.202;16.274;2023-12-22T08:48:57;7.30;95.00
49124;DHT22;48506;48.202;16.274;2023-12-22T08:51:28;7.40;94.60
49124;DHT22;48506;48.202;16.274;2023-12-22T08:53:55;7.50;94.20
49124;DHT22;48506;48.202;16.274;2023-12-22T08:56:24;7.40;94.30
49124;DHT22;48506;48.202;16.274;2023-12-22T08:58:52;7.50;94.40
49124;DHT22;48506;48.202;16.274;2023-12-22T09:01:19;7.70;94.10
49124;DHT22;48506;48.202;16.274;2023-12-22T09:03:45;7.80;94.20
49124;DHT22;48506;48.202;16.274;2023-12-22T09:06:22;8.00;93.30
49124;DHT22;48506;48.202;16.274;2023-12-22T09:08:48;8.10;93.20
49124;DHT22;48506;48.202;16.274;2023-12-22T09:11:17;8.10;93.40
49124;DHT22;48506;48.202;16.274;2023-12-22T09:13:43;8.30;93.00
49124;DHT22;48506;48.202;16.274;2023-12-22T09:16:10;8.30;92.50
49124;DHT22;48506;48.202;16.274;2023-12-22T09:18:36;8.40;92.30
49124;DHT22;48506;48.202;16.274;2023-12-22T09:21:02;8.40;92.30
49124;DHT22;48506;48.202;16.274;2023-12-22T09:23:29;8.50;92.00
49124;DHT22;48506;48.202;16.274;2023-12-22T09:25:55;8.50;92.40
49124;DHT22;48506;48.202;16.274;2023-12-22T09:28:21;8.60;92.20
49124;DHT22;48506;48.202;16.274;2023-12-22T09:30:46;8.60;91.50
49124;DHT22;48506;48.202;16.274;2023-12-22T09:33:13;8.50;92.10
49124;DHT22;48506;48.202;16.274;2023-12-22T09:35:39;8.50;92.00
49124;DHT22;48506;48.202;16.274;2023-12-22T09:38:08;8.40;92.00
49124;DHT22;48506;48.202;16.274;2023-12-22T09:40:35;8.50;92.40
49124;DHT22;48506;48.202;16.274;2023-12-22T09:43:02;8.50;92.30
49124;DHT22;48506;48.202;16.274;2023-12-22T09:45:32;8.50;91.90
49124;DHT22;48506;48.202;16.274;2023-12-22T09:48:00;8.40;92.10
49124;DHT22;48506;48.202;16.274;2023-12-22T09:50:30;8.30;92.30
49124;DHT22;48506;48.202;16.274;2023-12-22T09:52:56;8.20;92.10
49124;DHT22;48506;48.202;16.274;2023-12-22T09:55:23;8.10;92.40
49124;DHT22;48506;48.202;16.274;2023-12-22T09:57:52;8.10;92.50
49124;DHT22;48506;48.202;16.274;2023-12-22T10:00:18;8.10;92.20
49124;DHT22;48506;48.202;16.274;2023-12-22T10:02:45;8.10;92.20
49124;DHT22;48506;48.202;16.274;2023-12-22T10:05:11;8.00;92.30
49124;DHT22;48506;48.202;16.274;2023-12-22T10:07:42;7.90;92.60
49124;DHT22;48506;48.202;16.274;2023-12-22T10:10:10;7.90;92.60
49124;DHT22;48506;48.202;16.274;2023-12-22T10:12:38;7.80;92.80
49124;DHT22;48506;48.202;16.274;2023-12-22T10:15:05;7.70;92.80
49124;DHT22;48506;48.202;16.274;2023-12-22T10:17:33;7.70;93.00
49124;DHT22;48506;48.202;16.274;2023-12-22T10:19:59;7.70;92.60
49124;DHT22;48506;48.202;16.274;2023-12-22T10:22:25;7.60;92.70
49124;DHT22;48506;48.202;16.274;2023-12-22T10:24:51;7.60;92.70
49124;DHT22;48506;48.202;16.274;2023-12-22T10:27:17;7.50;92.60
49124;DHT22;48506;48.202;16.274;2023-12-22T10:29:51;7.60;92.70
49124;DHT22;48506;48.202;16.274;2023-12-22T10:32:20;7.70;92.60
49124;DHT22;48506;48.202;16.274;2023-12-22T10:34:47;7.80;92.70
49124;DHT22;48506;48.202;16.274;2023-12-22T10:37:14;8.00;92.30
49124;DHT22;48506;48.202;16.274;2023-12-22T10:39:40;8.40;92.50
49124;DHT22;48506;48.202;16.274;2023-12-22T10:42:06;8.80;92.20
49124;DHT22;48506;48.202;16.274;2023-12-22T10:44:33;9.10;91.50
49124;DHT22;48506;48.202;16.274;2023-12-22T10:47:00;9.40;90.70
49124;DHT22;48506;48.202;16.274;2023-12-22T10:49:26;9.40;90.60
49124;DHT22;48506;48.202;16.274;2023-12-22T10:51:52;9.30;90.40
49124;DHT22;48506;48.202;16.274;2023-12-22T10:54:19;9.40;90.60
49124;DHT22;48506;48.202;16.274;2023-12-22T10:56:45;9.60;90.70
49124;DHT22;48506;48.202;16.274;2023-12-22T10:59:11;9.80;89.80
49124;DHT22;48506;48.202;16.274;2023-12-22T11:01:37;9.90;89.40
49124;DHT22;48506;48.202;16.274;2023-12-22T11:04:06;9.80;89.10
49124;DHT22;48506;48.202;16.274;2023-12-22T11:06:35;9.70;90.10
49124;DHT22;48506;48.202;16.274;2023-12-22T11:09:09;9.90;90.00
49124;DHT22;48506;48.202;16.274;2023-12-22T11:11:37;10.00;90.30
49124;DHT22;48506;48.202;16.274;2023-12-22T11:14:07;10.00;89.50
49124;DHT22;48506;48.202;16.274;2023-12-22T11:16:34;9.90;89.70
49124;DHT22;48506;48.202;16.274;2023-12-22T11:19:01;9.60;90.00
49124;DHT22;48506;48.202;16.274;2023-12-22T11:21:30;9.30;90.20
49124;DHT22;48506;48.202;16.274;2023-12-22T11:23:57;9.00;90.50
49124;DHT22;48506;48.202;16.274;2023-12-22T11:26:24;8.80;90.90
49124;DHT22;48506;48.202;16.274;2023-12-22T11:28:52;8.60;90.90
49124;DHT22;48506;48.202;16.274;2023-12-22T11:31:19;8.50;91.40
49124;DHT22;48506;48.202;16.274;2023-12-22T11:33:48;8.40;91.60
49124;DHT22;48506;48.202;16.274;2023-12-22T11:36:15;8.30;90.70
49124;DHT22;48506;48.202;16.274;2023-12-22T11:38:42;8.10;90.10
49124;DHT22;48506;48.202;16.274;2023-12-22T11:41:30;8.00;91.10
49124;DHT22;48506;48.202;16.274;2023-12-22T11:43:58;7.70;91.90
49124;DHT22;48506;48.202;16.274;2023-12-22T11:46:25;7.80;92.40
49124;DHT22;48506;48.202;16.274;2023-12-22T11:48:52;8.00;92.20
49124;DHT22;48506;48.202;16.274;2023-12-22T11:51:19;8.10;92.10
49124;DHT22;48506;48.202;16.274;2023-12-22T11:53:45;8.40;92.00
49124;DHT22;48506;48.202;16.274;2023-12-22T11:56:12;8.70;92.10
49124;DHT22;48506;48.202;16.274;2023-12-22T11:58:46;8.60;91.40
49124;DHT22;48506;48.202;16.274;2023-12-22T12:01:23;8.70;91.30
49124;DHT22;48506;48.202;16.274;2023-12-22T12:03:51;8.50;92.00
49124;DHT22;48506;48.202;16.274;2023-12-22T12:08:52;8.50;92.20
49124;DHT22;48506;48.202;16.274;2023-12-22T12:11:20;8.60;92.60
49124;DHT22;48506;48.202;16.274;2023-12-22T12:13:47;8.70;92.00
49124;DHT22;48506;48.202;16.274;2023-12-22T12:16:15;8.70;92.10
49124;DHT22;48506;48.202;16.274;2023-12-22T12:18:42;8.70;92.00
49124;DHT22;48506;48.202;16.274;2023-12-22T12:21:09;8.60;92.00
49124;DHT22;48506;48.202;16.274;2023-12-22T12:23:36;8.60;92.00
49124;DHT22;48506;48.202;16.274;2023-12-22T12:26:02;8.40;91.90
49124;DHT22;48506;48.202;16.274;2023-12-22T12:28:31;8.40;92.10
49124;DHT22;48506;48.202;16.274;2023-12-22T12:31:05;8.30;92.00
49124;DHT22;48506;48.202;16.274;2023-12-22T12:33:33;8.30;92.20
49124;DHT22;48506;48.202;16.274;2023-12-22T12:36:01;8.30;92.10
49124;DHT22;48506;48.202;16.274;2023-12-22T12:38:53;8.30;92.20
49124;DHT22;48506;48.202;16.274;2023-12-22T12:41:29;8.40;92.40
49124;DHT22;48506;48.202;16.274;2023-12-22T12:43:56;8.50;92.20
49124;DHT22;48506;48.202;16.274;2023-12-22T12:46:23;8.50;92.10
49124;DHT22;48506;48.202;16.274;2023-12-22T12:49:04;8.50;91.90
49124;DHT22;48506;48.202;16.274;2023-12-22T12:51:35;8.40;91.50
49124;DHT22;48506;48.202;16.274;2023-12-22T12:54:01;8.40;91.60
49124;DHT22;48506;48.202;16.274;2023-12-22T12:56:27;8.40;91.90
49124;DHT22;48506;48.202;16.274;2023-12-22T12:58:53;8.40;91.50
49124;DHT22;48506;48.202;16.274;2023-12-22T13:01:19;8.30;91.40
49124;DHT22;48506;48.202;16.274;2023-12-22T13:03:57;8.30;91.60
49124;DHT22;48506;48.202;16.274;2023-12-22T13:06:23;8.30;91.80
49124;DHT22;48506;48.202;16.274;2023-12-22T13:08:53;8.20;91.90
49124;DHT22;48506;48.202;16.274;2023-12-22T13:11:22;8.20;91.80
49124;DHT22;48506;48.202;16.274;2023-12-22T13:13:49;8.20;91.80
49124;DHT22;48506;48.202;16.274;2023-12-22T13:16:23;8.10;92.00
49124;DHT22;48506;48.202;16.274;2023-12-22T13:18:56;8.10;92.10
49124;DHT22;48506;48.202;16.274;2023-12-22T13:21:24;8.00;92.20
49124;DHT22;48506;48.202;16.274;2023-12-22T13:26:35;8.10;92.10
49124;DHT22;48506;48.202;16.274;2023-12-22T13:29:01;8.10;92.30
49124;DHT22;48506;48.202;16.274;2023-12-22T13:31:27;8.10;92.00
49124;DHT22;48506;48.202;16.274;2023-12-22T13:33:53;8.10;91.80
49124;DHT22;48506;48.202;16.274;2023-12-22T13:36:20;8.10;91.70
49124;DHT22;48506;48.202;16.274;2023-12-22T13:38:47;8.10;91.60
49124;DHT22;48506;48.202;16.274;2023-12-22T13:41:14;8.10;91.50
49124;DHT22;48506;48.202;16.274;2023-12-22T13:43:40;8.10;91.40
49124;DHT22;48506;48.202;16.274;2023-12-22T13:46:06;8.10;91.20
49124;DHT22;48506;48.202;16.274;2023-12-22T13:48:34;8.10;91.40
49124;DHT22;48506;48.202;16.274;2023-12-22T13:51:01;8.20;91.10
49124;DHT22;48506;48.202;16.274;2023-12-22T13:53:30;8.10;90.80
49124;DHT22;48506;48.202;16.274;2023-12-22T13:55:56;8.10;90.80
49124;DHT22;48506;48.202;16.274;2023-12-22T13:58:23;8.20;88.50
49124;DHT22;48506;48.202;16.274;2023-12-22T14:00:49;8.20;89.00
49124;DHT22;48506;48.202;16.274;2023-12-22T14:03:16;8.10;88.80
49124;DHT22;48506;48.202;16.274;2023-12-22T14:05:45;8.10;80.50
49124;DHT22;48506;48.202;16.274;2023-12-22T14:08:11;8.20;78.00
49124;DHT22;48506;48.202;16.274;2023-12-22T14:10:36;8.20;76.20
49124;DHT22;48506;48.202;16.274;2023-12-22T14:13:03;8.30;75.10
49124;DHT22;48506;48.202;16.274;2023-12-22T14:15:29;8.30;76.10
49124;DHT22;48506;48.202;16.274;2023-12-22T14:17:55;8.40;75.80
49124;DHT22;48506;48.202;16.274;2023-12-22T14:20:21;8.30;77.70
49124;DHT22;48506;48.202;16.274;2023-12-22T14:22:47;8.30;75.30
49124;DHT22;48506;48.202;16.274;2023-12-22T14:25:13;8.30;76.20
49124;DHT22;48506;48.202;16.274;2023-12-22T14:27:39;8.30;76.90
49124;DHT22;48506;48.202;16.274;2023-12-22T14:30:05;8.30;78.60
49124;DHT22;48506;48.202;16.274;2023-12-22T14:32:31;8.20;77.50
49124;DHT22;48506;48.202;16.274;2023-12-22T14:34:57;8.10;78.90
49124;DHT22;48506;48.202;16.274;2023-12-22T14:37:23;8.00;79.80
49124;DHT22;48506;48.202;16.274;2023-12-22T14:39:49;8.00;80.90
49124;DHT22;48506;48.202;16.274;2023-12-22T14:42:15;7.90;81.40
49124;DHT22;48506;48.202;16.274;2023-12-22T14:44:41;7.80;82.20
49124;DHT22;48506;48.202;16.274;2023-12-22T14:47:07;7.80;83.60
49124;DHT22;48506;48.202;16.274;2023-12-22T14:49:33;7.70;84.60
49124;DHT22;48506;48.202;16.274;2023-12-22T14:51:59;7.60;85.90
49124;DHT22;48506;48.202;16.274;2023-12-22T14:54:26;7.50;86.30
49124;DHT22;48506;48.202;16.274;2023-12-22T14:56:52;7.40;87.70
49124;DHT22;48506;48.202;16.274;2023-12-22T14:59:17;7.30;89.00
49124;DHT22;48506;48.202;16.274;2023-12-22T15:01:44;7.20;91.20
49124;DHT22;48506;48.202;16.274;2023-12-22T15:04:10;7.00;91.90
49124;DHT22;48506;48.202;16.274;2023-12-22T15:06:40;6.80;92.60
49124;DHT22;48506;48.202;16.274;2023-12-22T15:09:07;6.70;93.30
49124;DHT22;48506;48.202;16.274;2023-12-22T15:11:33;6.50;93.40
49124;DHT22;48506;48.202;16.274;2023-12-22T15:13:59;6.50;93.70
49124;DHT22;48506;48.202;16.274;2023-12-22T15:16:25;6.40;94.10
49124;DHT22;48506;48.202;16.274;2023-12-22T15:18:51;6.40;94.40
49124;DHT22;48506;48.202;16.274;2023-12-22T15:21:21;6.30;94.60
49124;DHT22;48506;48.202;16.274;2023-12-22T15:23:47;6.30;94.60
49124;DHT22;48506;48.202;16.274;2023-12-22T15:26:20;6.20;94.60
49124;DHT22;48506;48.202;16.274;2023-12-22T15:28:47;6.30;94.80
49124;DHT22;48506;48.202;16.274;2023-12-22T15:31:13;6.30;94.70
49124;DHT22;48506;48.202;16.274;2023-12-22T15:33:38;6.30;94.60